Time;durP1;ratioP1;P1;durP2;ratioP2;P2;SDS_P1;SDS_P2;PMS_P1;PMS_P2;Temp;Humidity;BMP_temperature;BMP_pressure;BME280_temperature;BME280_humidity;BME280_pressure;Samples;Min_cycle;Max_cycle;Signal;HPM_P1;HPM_P2
2022/01/11 00:01:55;;;;;;;;;;;;;;;7.03;92.12;99171.88;5025823;28;20268;-86
2022/01/11 00:04:21;;;;;;;;;;;;;;;6.88;92.47;99173.78;5025153;28;19962;-85
2022/01/11 00:06:49;;;;;;;;;;;;;;;6.75;92.52;99165.16;5026219;28;19924;-86
2022/01/11 00:11:46;;;;;;;;;;;;;;;6.90;91.36;99186.88;5024795;28;19921;-86
2022/01/11 00:14:11;;;;;;;;;;;;;;;6.83;91.20;99188.69;5025815;28;19917;-85
2022/01/11 00:16:36;;;;;;;;;;;;;;;6.79;91.33;99193.06;5023993;28;20405;-87
2022/01/11 00:19:06;;;;;;;;;;;;;;;6.74;91.19;99191.38;5026153;28;19952;-86
2022/01/11 00:21:31;;;;;;;;;;;;;;;6.67;91.47;99202.78;5024971;28;19959;-88
2022/01/11 00:26:41;;;;;;;;;;;;;;;6.56;92.00;99208.94;5024724;28;20880;-86
2022/01/11 00:29:06;;;;;;;;;;;;;;;6.58;91.58;99211.56;5025675;28;19968;-86
2022/01/11 00:31:31;;;;;;;;;;;;;;;6.71;91.03;99217.59;5025751;28;20279;-87
2022/01/11 00:33:57;;;;;;;;;;;;;;;6.65;91.35;99220.28;5025472;28;19924;-85
2022/01/11 00:36:29;;;;;;;;;;;;;;;6.63;91.46;99217.66;5024835;28;20018;-85
2022/01/11 00:38:55;;;;;;;;;;;;;;;6.64;91.56;99227.25;5025148;28;19975;-84
2022/01/11 00:41:20;;;;;;;;;;;;;;;6.59;91.74;99226.41;5023401;28;20451;-85
2022/01/11 00:43:45;;;;;;;;;;;;;;;6.56;91.84;99237.78;5025026;28;19920;-85
2022/01/11 00:46:11;;;;;;;;;;;;;;;6.71;91.63;99241.19;5025497;28;20368;-85
2022/01/11 00:48:39;;;;;;;;;;;;;;;6.63;91.40;99241.25;5024073;28;19920;-85
2022/01/11 00:51:05;;;;;;;;;;;;;;;6.48;91.13;99247.44;5026042;28;19924;-86
2022/01/11 00:53:30;;;;;;;;;;;;;;;6.44;91.41;99245.72;5024863;28;19909;-85
2022/01/11 00:55:55;;;;;;;;;;;;;;;6.49;91.27;99245.69;5025127;28;19917;-85
2022/01/11 00:58:21;;;;;;;;;;;;;;;6.41;91.14;99250.97;5024396;28;19913;-85
2022/01/11 01:00:47;;;;;;;;;;;;;;;6.41;90.56;99257.09;5024802;28;19917;-87
2022/01/11 01:03:13;;;;;;;;;;;;;;;6.42;90.93;99257.94;5028626;28;19913;-86
2022/01/11 01:05:38;;;;;;;;;;;;;;;6.32;90.83;99259.75;5027708;28;19984;-85
2022/01/11 01:08:05;;;;;;;;;;;;;;;6.25;90.96;99263.28;5027426;28;19917;-85
2022/01/11 01:10:35;;;;;;;;;;;;;;;6.43;90.15;99268.44;5027891;28;19913;-85
2022/01/11 01:13:04;;;;;;;;;;;;;;;6.43;89.95;99270.19;5029153;28;19925;-86
2022/01/11 01:15:29;;;;;;;;;;;;;;;6.58;89.55;99267.50;5028003;28;19916;-85
2022/01/11 01:17:55;;;;;;;;;;;;;;;6.55;89.64;99270.13;5029250;28;19913;-86
2022/01/11 01:20:20;;;;;;;;;;;;;;;6.67;88.45;99274.41;5028947;28;19915;-85
2022/01/11 01:22:50;;;;;;;;;;;;;;;6.43;88.74;99272.81;5029019;28;19920;-84
2022/01/11 01:25:23;;;;;;;;;;;;;;;6.45;88.77;99276.28;5027733;28;20783;-85
2022/01/11 01:27:49;;;;;;;;;;;;;;;6.37;89.19;99275.47;5028449;28;19917;-85
2022/01/11 01:30:16;;;;;;;;;;;;;;;6.45;88.81;99287.63;5026347;28;19917;-85
2022/01/11 01:32:41;;;;;;;;;;;;;;;6.40;88.50;99289.41;5028471;28;19919;-87
2022/01/11 01:35:07;;;;;;;;;;;;;;;6.27;89.18;99285.97;5026914;28;19917;-87
2022/01/11 01:37:32;;;;;;;;;;;;;;;6.21;89.30;99288.63;5026912;28;20371;-84
2022/01/11 01:39:58;;;;;;;;;;;;;;;6.19;89.43;99290.34;5026103;28;19917;-84
2022/01/11 01:42:26;;;;;;;;;;;;;;;6.21;89.87;99287.72;5027981;28;19912;-85
2022/01/11 01:44:52;;;;;;;;;;;;;;;6.15;89.74;99296.50;5026767;28;19920;-85
2022/01/11 01:47:17;;;;;;;;;;;;;;;6.02;90.37;99298.25;5028176;28;19909;-86
2022/01/11 01:49:43;;;;;;;;;;;;;;;6.04;90.40;99303.50;5028035;28;19917;-85
2022/01/11 01:52:08;;;;;;;;;;;;;;;6.07;90.83;99291.28;5027992;28;19920;-86
2022/01/11 01:54:34;;;;;;;;;;;;;;;6.08;90.94;99300.00;5027043;28;19913;-85
2022/01/11 01:56:59;;;;;;;;;;;;;;;6.04;90.58;99291.28;5027634;28;19913;-86
2022/01/11 01:59:25;;;;;;;;;;;;;;;6.05;90.79;99292.16;5027656;28;20402;-85
2022/01/11 02:01:50;;;;;;;;;;;;;;;5.97;90.38;99292.19;5027817;28;19940;-87
2022/01/11 02:04:17;;;;;;;;;;;;;;;5.96;90.67;99298.25;5028155;28;19917;-85
2022/01/11 02:06:43;;;;;;;;;;;;;;;5.83;91.08;99307.88;5027840;28;19946;-85
2022/01/11 02:09:10;;;;;;;;;;;;;;;5.74;92.13;99305.28;5027899;28;19916;-86
2022/01/11 02:11:35;;;;;;;;;;;;;;;5.71;91.93;99310.53;5028439;28;20359;-87
2022/01/11 02:14:01;;;;;;;;;;;;;;;5.73;91.85;99307.03;5027615;28;19916;-86
2022/01/11 02:16:26;;;;;;;;;;;;;;;5.72;91.81;99309.66;5027313;28;19934;-85
2022/01/11 02:18:52;;;;;;;;;;;;;;;5.63;92.03;99307.91;5026323;28;19917;-86
2022/01/11 02:21:18;;;;;;;;;;;;;;;5.57;92.06;99295.69;5027848;28;19912;-88
2022/01/11 02:23:44;;;;;;;;;;;;;;;5.52;92.18;99312.31;5027198;28;19919;-85
2022/01/11 02:26:10;;;;;;;;;;;;;;;5.67;92.22;99325.38;5025836;28;20356;-86
2022/01/11 02:28:36;;;;;;;;;;;;;;;5.59;91.90;99334.94;5026237;28;20142;-87
2022/01/11 02:31:03;;;;;;;;;;;;;;;5.50;92.50;99327.09;5027313;28;19913;-87
2022/01/11 02:33:33;;;;;;;;;;;;;;;5.45;92.42;99329.72;5027866;28;19963;-86
2022/01/11 02:36:00;;;;;;;;;;;;;;;5.45;92.34;99328.84;5027374;28;19924;-86
2022/01/11 02:38:25;;;;;;;;;;;;;;;5.43;92.40;99334.09;5023073;28;20474;-85
2022/01/11 02:40:51;;;;;;;;;;;;;;;5.56;92.52;99335.84;5027582;28;19917;-84
2022/01/11 02:43:16;;;;;;;;;;;;;;;5.41;92.44;99333.22;5028934;28;19913;-85
2022/01/11 02:45:41;;;;;;;;;;;;;;;5.45;92.51;99340.19;5027514;28;19924;-85
2022/01/11 02:48:07;;;;;;;;;;;;;;;5.46;92.68;99339.31;5026816;28;19920;-85
2022/01/11 02:50:32;;;;;;;;;;;;;;;5.47;92.31;99337.56;5027548;28;19913;-86
2022/01/11 02:52:58;;;;;;;;;;;;;;;5.44;92.18;99338.47;5025931;28;20707;-85
2022/01/11 02:55:23;;;;;;;;;;;;;;;5.40;92.37;99348.94;5026835;28;19917;-84
2022/01/11 02:57:48;;;;;;;;;;;;;;;5.48;91.97;99342.81;5024790;28;19913;-84
2022/01/11 03:00:15;;;;;;;;;;;;;;;5.46;91.77;99346.31;5025951;28;20019;-84
2022/01/11 03:02:41;;;;;;;;;;;;;;;5.41;91.81;99359.38;5023936;28;19928;-85
2022/01/11 03:05:08;;;;;;;;;;;;;;;5.40;91.61;99338.47;5024119;28;19917;-85
2022/01/11 03:07:33;;;;;;;;;;;;;;;5.48;91.02;99345.41;5025678;28;19995;-85
2022/01/11 03:10:04;;;;;;;;;;;;;;;5.42;91.10;99355.03;5026516;28;20008;-85
2022/01/11 03:12:30;;;;;;;;;;;;;;;5.29;91.02;99352.41;5026909;28;19908;-85
2022/01/11 03:14:56;;;;;;;;;;;;;;;5.51;90.83;99363.72;5023427;28;19924;-84
2022/01/11 03:17:21;;;;;;;;;;;;;;;5.36;90.74;99364.63;5026433;28;19911;-85
2022/01/11 03:19:47;;;;;;;;;;;;;;;5.41;91.22;99367.25;5025992;28;19917;-84
2022/01/11 03:22:12;;;;;;;;;;;;;;;5.51;90.58;99373.34;5024281;28;19917;-84
2022/01/11 03:24:38;;;;;;;;;;;;;;;5.40;90.58;99367.25;5023325;28;19919;-85
2022/01/11 03:27:05;;;;;;;;;;;;;;;5.43;90.58;99373.34;5025682;28;19913;-85
2022/01/11 03:29:30;;;;;;;;;;;;;;;5.45;90.76;99374.19;5026251;28;19964;-85
2022/01/11 03:31:55;;;;;;;;;;;;;;;5.49;90.49;99369.84;5024598;28;20662;-85
2022/01/11 03:34:21;;;;;;;;;;;;;;;5.44;90.55;99372.47;5026081;28;19913;-85
2022/01/11 03:36:46;;;;;;;;;;;;;;;5.55;89.95;99373.34;5026696;28;19913;-84
2022/01/11 03:39:12;;;;;;;;;;;;;;;5.56;89.29;99379.44;5025909;28;19913;-85
2022/01/11 03:41:37;;;;;;;;;;;;;;;5.49;88.60;99383.81;5024490;28;19913;-85
2022/01/11 03:44:03;;;;;;;;;;;;;;;5.56;88.18;99376.81;5025011;28;19913;-84
2022/01/11 03:46:28;;;;;;;;;;;;;;;5.40;89.12;99388.16;5024122;28;19913;-84
2022/01/11 03:48:53;;;;;;;;;;;;;;;5.54;88.63;99399.50;5025133;28;20283;-84
2022/01/11 03:51:19;;;;;;;;;;;;;;;5.53;88.86;99390.78;5026398;28;20023;-84
2022/01/11 03:53:54;;;;;;;;;;;;;;;5.38;89.58;99396.00;5026561;28;20282;-84
2022/01/11 03:56:22;;;;;;;;;;;;;;;5.36;89.83;99396.00;5025546;28;19987;-88
2022/01/11 03:58:52;;;;;;;;;;;;;;;5.32;89.73;99401.22;5022242;28;19913;-84
2022/01/11 04:01:18;;;;;;;;;;;;;;;5.33;89.72;99402.97;5025686;28;19924;-85
2022/01/11 04:03:43;;;;;;;;;;;;;;;5.44;89.48;99395.13;5026052;28;19925;-84
2022/01/11 04:06:09;;;;;;;;;;;;;;;5.50;88.67;99400.34;5025212;28;19921;-86
2022/01/11 04:08:34;;;;;;;;;;;;;;;5.33;89.00;99405.56;5026374;28;19924;-87
2022/01/11 04:10:59;;;;;;;;;;;;;;;5.45;88.87;99407.34;5025278;28;20007;-84
2022/01/11 04:13:25;;;;;;;;;;;;;;;5.54;87.64;99416.06;5025708;28;19952;-85
2022/01/11 04:15:50;;;;;;;;;;;;;;;5.32;88.79;99420.41;5025540;28;20406;-86
2022/01/11 04:18:16;;;;;;;;;;;;;;;5.39;88.91;99416.03;5025986;28;19920;-87
2022/01/11 04:20:41;;;;;;;;;;;;;;;5.30;89.53;99418.66;5025636;28;19920;-86
2022/01/11 04:23:11;;;;;;;;;;;;;;;5.30;89.25;99423.88;5025430;28;19913;-85
2022/01/11 04:25:36;;;;;;;;;;;;;;;5.22;89.77;99423.91;5025586;28;19928;-88
2022/01/11 04:28:02;;;;;;;;;;;;;;;5.42;88.74;99425.66;5024290;28;19909;-85
2022/01/11 04:30:27;;;;;;;;;;;;;;;5.49;88.51;99428.28;5025402;28;20035;-85
2022/01/11 04:32:53;;;;;;;;;;;;;;;5.52;87.68;99425.66;5025457;28;20410;-83
2022/01/11 04:35:18;;;;;;;;;;;;;;;5.53;87.71;99437.00;5015661;28;19909;-83
2022/01/11 04:37:46;;;;;;;;;;;;;;;5.36;87.93;99434.34;5017133;28;20029;-82
2022/01/11 04:40:12;;;;;;;;;;;;;;;5.45;88.22;99443.97;5014510;28;19917;-82
2022/01/11 04:42:37;;;;;;;;;;;;;;;5.29;88.12;99440.47;5028841;28;20406;-82
2022/01/11 04:45:03;;;;;;;;;;;;;;;5.12;88.12;99441.28;5028129;28;20654;-84
2022/01/11 04:47:28;;;;;;;;;;;;;;;4.93;88.77;99439.50;5029377;28;19916;-83
2022/01/11 04:49:53;;;;;;;;;;;;;;;4.92;89.24;99446.44;5013433;28;19913;-83
2022/01/11 04:52:19;;;;;;;;;;;;;;;4.92;89.57;99450.81;5027511;28;19920;-81
2022/01/11 04:54:44;;;;;;;;;;;;;;;5.00;89.08;99444.75;5029127;28;19920;-82
2022/01/11 04:57:09;;;;;;;;;;;;;;;4.81;89.47;99450.75;5029588;28;20481;-82
2022/01/11 04:59:35;;;;;;;;;;;;;;;4.69;89.11;99448.94;5019616;28;19909;-82
2022/01/11 05:02:00;;;;;;;;;;;;;;;4.68;89.63;99460.28;5009630;28;20387;-81
2022/01/11 05:04:25;;;;;;;;;;;;;;;4.83;89.64;99472.53;5011123;28;19941;-82
2022/01/11 05:06:51;;;;;;;;;;;;;;;4.63;90.01;99461.97;5029353;28;19967;-80
2022/01/11 05:09:16;;;;;;;;;;;;;;;4.75;89.84;99474.25;5022512;28;19909;-81
2022/01/11 05:11:41;;;;;;;;;;;;;;;4.80;89.60;99470.81;5008769;28;19918;-81
2022/01/11 05:14:07;;;;;;;;;;;;;;;4.56;90.01;99455.84;5008958;28;19953;-81
2022/01/11 05:16:32;;;;;;;;;;;;;;;4.75;90.39;99476.84;5008142;28;19909;-81
2022/01/11 05:18:57;;;;;;;;;;;;;;;4.72;89.61;99469.00;5014606;28;19926;-81
2022/01/11 05:21:23;;;;;;;;;;;;;;;4.64;90.18;99475.06;5011827;28;20644;-81
2022/01/11 05:23:48;;;;;;;;;;;;;;;4.66;90.22;99478.56;5025950;28;19960;-81
2022/01/11 05:26:14;;;;;;;;;;;;;;;4.68;90.22;99480.28;5011216;28;19975;-80
2022/01/11 05:28:39;;;;;;;;;;;;;;;4.84;89.50;99487.38;5012791;28;19917;-81
2022/01/11 05:31:04;;;;;;;;;;;;;;;4.63;89.78;99483.78;5016392;28;19913;-80
2022/01/11 05:33:30;;;;;;;;;;;;;;;4.67;90.12;99489.88;5009260;28;19968;-80
2022/01/11 05:35:55;;;;;;;;;;;;;;;4.55;90.81;99500.25;5018992;28;19966;-81
2022/01/11 05:38:20;;;;;;;;;;;;;;;4.57;89.90;99503.75;5028097;28;20087;-80
2022/01/11 05:40:46;;;;;;;;;;;;;;;4.61;89.18;99503.78;5027528;28;20011;-81
2022/01/11 05:43:12;;;;;;;;;;;;;;;4.73;89.01;99516.06;5028602;28;19995;-81
2022/01/11 05:45:38;;;;;;;;;;;;;;;4.90;88.32;99520.50;5028107;28;19917;-80
2022/01/11 05:48:04;;;;;;;;;;;;;;;4.83;88.87;99525.69;5027556;28;19970;-80
2022/01/11 05:50:29;;;;;;;;;;;;;;;4.83;88.17;99525.69;5028659;28;19936;-80
2022/01/11 05:52:54;;;;;;;;;;;;;;;4.89;87.65;99529.22;5028263;28;20000;-80
2022/01/11 05:55:20;;;;;;;;;;;;;;;4.68;88.47;99528.22;5027349;28;20470;-80
2022/01/11 05:57:45;;;;;;;;;;;;;;;4.64;88.98;99531.66;5028651;28;20430;-81
2022/01/11 06:00:14;;;;;;;;;;;;;;;4.59;89.44;99544.72;5028115;28;19916;-80
2022/01/11 06:02:42;;;;;;;;;;;;;;;4.60;89.74;99538.63;5027894;28;19917;-80
2022/01/11 06:05:08;;;;;;;;;;;;;;;4.41;89.98;99549.81;5027987;28;19909;-80
2022/01/11 06:07:33;;;;;;;;;;;;;;;4.51;90.18;99548.13;5026339;28;19913;-80
2022/01/11 06:09:58;;;;;;;;;;;;;;;4.62;89.48;99547.34;5027906;28;19920;-79
2022/01/11 06:12:24;;;;;;;;;;;;;;;4.62;89.15;99551.69;5026051;28;20299;-80
2022/01/11 06:14:49;;;;;;;;;;;;;;;4.53;90.00;99555.13;5027627;28;19967;-80
2022/01/11 06:17:14;;;;;;;;;;;;;;;4.53;89.44;99559.47;5026944;28;19917;-81
2022/01/11 06:19:40;;;;;;;;;;;;;;;4.53;89.18;99565.56;5028121;28;19924;-80
2022/01/11 06:22:05;;;;;;;;;;;;;;;4.65;89.44;99570.00;5027176;28;20018;-80
2022/01/11 06:24:30;;;;;;;;;;;;;;;4.62;88.95;99573.47;5027844;28;19957;-80
2022/01/11 06:26:56;;;;;;;;;;;;;;;4.59;89.10;99583.91;5027294;28;19962;-79
2022/01/11 06:29:21;;;;;;;;;;;;;;;4.69;89.23;99584.81;5027759;28;20306;-79
2022/01/11 06:31:46;;;;;;;;;;;;;;;4.69;88.61;99584.81;5027542;28;19920;-80
2022/01/11 06:34:12;;;;;;;;;;;;;;;4.74;88.63;99595.31;5028027;28;19928;-79
2022/01/11 06:36:37;;;;;;;;;;;;;;;4.71;88.79;99598.81;5027150;28;19917;-79
2022/01/11 06:39:03;;;;;;;;;;;;;;;4.78;88.42;99595.34;5024225;28;19920;-80
2022/01/11 06:41:29;;;;;;;;;;;;;;;4.78;88.22;99602.31;5008267;28;19913;-79
2022/01/11 06:43:54;;;;;;;;;;;;;;;4.68;88.57;99604.00;5007907;28;19964;-79
2022/01/11 06:46:22;;;;;;;;;;;;;;;4.65;88.79;99614.44;5023166;28;19913;-80
2022/01/11 06:48:47;;;;;;;;;;;;;;;4.63;89.34;99621.38;5027555;28;19913;-79
2022/01/11 06:51:13;;;;;;;;;;;;;;;4.70;89.65;99628.41;5027554;28;19913;-79
2022/01/11 06:53:38;;;;;;;;;;;;;;;4.74;89.30;99627.56;5026915;28;20359;-79
2022/01/11 06:56:03;;;;;;;;;;;;;;;4.57;89.63;99635.28;5027576;28;20014;-79
2022/01/11 06:58:29;;;;;;;;;;;;;;;4.57;89.18;99635.28;5027019;28;19978;-79
2022/01/11 07:00:54;;;;;;;;;;;;;;;4.69;88.97;99637.09;5025441;28;20007;-79
2022/01/11 07:03:19;;;;;;;;;;;;;;;4.58;88.99;99639.63;5027119;28;20402;-79
2022/01/11 07:05:45;;;;;;;;;;;;;;;4.60;88.43;99642.25;5026632;28;19970;-79
2022/01/11 07:08:11;;;;;;;;;;;;;;;4.57;88.60;99650.06;5025964;28;19913;-79
2022/01/11 07:10:36;;;;;;;;;;;;;;;4.76;88.37;99658.94;5026103;28;19921;-79
2022/01/11 07:13:02;;;;;;;;;;;;;;;4.87;87.76;99653.78;5008645;28;19971;-79
2022/01/11 07:15:28;;;;;;;;;;;;;;;4.83;87.92;99656.38;5061618;28;19924;-79
2022/01/11 07:17:53;;;;;;;;;;;;;;;4.94;87.51;99660.81;5046212;28;19913;-78
2022/01/11 07:20:19;;;;;;;;;;;;;;;4.87;87.14;99662.50;5046669;28;20370;-79
2022/01/11 07:22:44;;;;;;;;;;;;;;;4.84;87.56;99670.31;5046418;28;19912;-79
2022/01/11 07:25:09;;;;;;;;;;;;;;;4.90;87.53;99674.72;5046779;28;19909;-80
2022/01/11 07:27:35;;;;;;;;;;;;;;;4.82;87.74;99672.06;5046933;28;19915;-80
2022/01/11 07:30:01;;;;;;;;;;;;;;;4.75;88.64;99680.69;5046685;28;19959;-79
2022/01/11 07:32:26;;;;;;;;;;;;;;;4.72;87.92;99693.75;5046692;28;19916;-79
2022/01/11 07:34:51;;;;;;;;;;;;;;;4.73;88.34;99693.75;5046875;28;20355;-80
2022/01/11 07:37:17;;;;;;;;;;;;;;;4.64;87.63;99691.94;5046607;28;19999;-79
2022/01/11 07:39:42;;;;;;;;;;;;;;;4.76;88.04;99696.41;5046592;28;20413;-79
2022/01/11 07:42:08;;;;;;;;;;;;;;;4.65;88.67;99696.31;5046613;28;20398;-80
2022/01/11 07:44:33;;;;;;;;;;;;;;;4.79;88.66;99709.50;5046723;28;19905;-80
2022/01/11 07:46:58;;;;;;;;;;;;;;;4.84;88.29;99712.13;5046370;28;19952;-80
2022/01/11 07:49:24;;;;;;;;;;;;;;;4.78;88.30;99707.72;5046911;28;20369;-80
2022/01/11 07:51:49;;;;;;;;;;;;;;;4.88;87.55;99726.09;5046484;28;20376;-79
2022/01/11 07:54:15;;;;;;;;;;;;;;;4.84;88.22;99723.47;5046958;28;19943;-80
2022/01/11 07:56:40;;;;;;;;;;;;;;;4.84;87.96;99726.06;5046284;28;19913;-80
2022/01/11 07:59:05;;;;;;;;;;;;;;;5.00;87.08;99731.44;5045713;28;20043;-80
2022/01/11 08:01:31;;;;;;;;;;;;;;;4.81;87.03;99733.88;5046511;28;19912;-80
2022/01/11 08:03:57;;;;;;;;;;;;;;;4.87;86.91;99737.44;5046425;28;19956;-81
2022/01/11 08:06:22;;;;;;;;;;;;;;;4.86;86.48;99733.94;5046299;28;19948;-80
2022/01/11 08:08:47;;;;;;;;;;;;;;;4.93;85.98;99742.72;5046753;28;19917;-80
2022/01/11 08:11:13;;;;;;;;;;;;;;;4.89;86.27;99743.56;5047368;28;20341;-80
2022/01/11 08:13:39;;;;;;;;;;;;;;;4.79;86.47;99750.44;5050050;28;20367;-80
2022/01/11 08:16:04;;;;;;;;;;;;;;;4.96;86.35;99747.97;5049725;28;19909;-79
2022/01/11 08:18:30;;;;;;;;;;;;;;;5.22;85.37;99745.56;5049219;28;20668;-79
2022/01/11 08:20:55;;;;;;;;;;;;;;;5.12;85.05;99748.97;5049500;28;19924;-80
2022/01/11 08:23:20;;;;;;;;;;;;;;;4.80;85.91;99760.91;5049621;28;19948;-80
2022/01/11 08:25:46;;;;;;;;;;;;;;;4.92;86.48;99754.91;5049702;28;19916;-81
2022/01/11 08:28:12;;;;;;;;;;;;;;;5.09;86.12;99757.66;5048633;28;19964;-81
2022/01/11 08:30:38;;;;;;;;;;;;;;;4.90;86.25;99764.47;5049723;28;19917;-81
2022/01/11 08:33:04;;;;;;;;;;;;;;;4.94;86.47;99762.75;5048642;28;19955;-80
2022/01/11 08:35:30;;;;;;;;;;;;;;;4.80;86.22;99763.53;5049677;28;19908;-80
2022/01/11 08:37:56;;;;;;;;;;;;;;;4.77;87.16;99762.59;5048751;28;19946;-80
2022/01/11 08:40:22;;;;;;;;;;;;;;;4.90;86.33;99761.88;5049767;28;19916;-80
2022/01/11 08:42:47;;;;;;;;;;;;;;;4.73;86.54;99758.22;5049733;28;19916;-81
2022/01/11 08:45:12;;;;;;;;;;;;;;;4.73;86.79;99756.47;5049737;28;19919;-81
2022/01/11 08:47:38;;;;;;;;;;;;;;;4.87;86.90;99761.84;5049058;28;19912;-81
2022/01/11 08:50:04;;;;;;;;;;;;;;;4.97;85.80;99760.16;5047899;28;19920;-81
2022/01/11 08:52:30;;;;;;;;;;;;;;;4.98;85.47;99754.09;5048464;28;20570;-82
2022/01/11 08:54:55;;;;;;;;;;;;;;;4.96;85.74;99759.31;5049641;28;19923;-81
2022/01/11 08:57:21;;;;;;;;;;;;;;;5.01;85.68;99754.97;5049493;28;20271;-81
2022/01/11 08:59:47;;;;;;;;;;;;;;;5.31;84.08;99755.22;5049876;28;20704;-81
2022/01/11 09:02:12;;;;;;;;;;;;;;;5.24;84.58;99759.53;5049261;28;19947;-81
2022/01/11 09:04:38;;;;;;;;;;;;;;;5.36;83.86;99759.63;5049615;28;19919;-81
2022/01/11 09:07:03;;;;;;;;;;;;;;;5.40;83.17;99757.88;5049338;28;19913;-81
2022/01/11 09:09:31;;;;;;;;;;;;;;;5.39;83.28;99753.50;5049341;28;19977;-81
2022/01/11 09:11:57;;;;;;;;;;;;;;;5.44;82.91;99753.53;5049287;28;20507;-81
2022/01/11 09:14:23;;;;;;;;;;;;;;;5.60;82.82;99757.16;5049677;28;20054;-81
2022/01/11 09:16:48;;;;;;;;;;;;;;;5.61;82.07;99756.28;5049160;28;20001;-81
2022/01/11 09:19:14;;;;;;;;;;;;;;;5.60;81.99;99760.63;5047974;28;19920;-81
2022/01/11 09:21:40;;;;;;;;;;;;;;;5.63;81.64;99749.31;5049011;28;19913;-81
2022/01/11 09:24:05;;;;;;;;;;;;;;;5.66;81.59;99762.44;5048069;28;20383;-81
2022/01/11 09:26:31;;;;;;;;;;;;;;;5.40;82.10;99760.50;5049117;28;19908;-81
2022/01/11 09:28:57;;;;;;;;;;;;;;;5.07;84.00;99761.16;5048080;28;20657;-81
2022/01/11 09:31:22;;;;;;;;;;;;;;;5.27;83.61;99764.78;5048898;28;19917;-81
2022/01/11 09:33:49;;;;;;;;;;;;;;;5.27;83.85;99767.41;5048523;28;20710;-82
2022/01/11 09:36:15;;;;;;;;;;;;;;;5.17;83.76;99768.19;5048114;28;19948;-81
2022/01/11 09:38:41;;;;;;;;;;;;;;;5.26;83.77;99770.00;5048962;28;19959;-81
2022/01/11 09:41:06;;;;;;;;;;;;;;;5.05;83.86;99755.00;5045774;28;19916;-81
2022/01/11 09:43:31;;;;;;;;;;;;;;;5.44;82.80;99775.38;5046709;28;19916;-81
2022/01/11 09:45:57;;;;;;;;;;;;;;;5.51;82.75;99773.66;5048216;28;19979;-81
2022/01/11 09:48:23;;;;;;;;;;;;;;;5.32;82.64;99768.31;5048038;28;19956;-81
2022/01/11 09:50:49;;;;;;;;;;;;;;;5.53;82.26;99769.31;5043365;28;19925;-80
2022/01/11 09:53:14;;;;;;;;;;;;;;;5.48;81.86;99763.19;5048378;28;19917;-80
2022/01/11 09:55:41;;;;;;;;;;;;;;;5.47;83.06;99766.66;5046937;28;19917;-80
2022/01/11 09:58:07;;;;;;;;;;;;;;;5.50;82.22;99759.72;5048055;28;19917;-80
2022/01/11 10:00:33;;;;;;;;;;;;;;;5.36;82.18;99766.56;5047229;28;19920;-80
2022/01/11 10:02:58;;;;;;;;;;;;;;;5.52;81.83;99770.19;5047691;28;19913;-79
2022/01/11 10:05:24;;;;;;;;;;;;;;;5.79;79.66;99773.84;5046900;28;20712;-80
2022/01/11 10:07:50;;;;;;;;;;;;;;;5.76;80.01;99771.19;5047076;28;20454;-81
2022/01/11 10:10:15;;;;;;;;;;;;;;;5.66;79.37;99768.53;5047644;28;20015;-80
2022/01/11 10:13:08;;;;;;;;;;;;;;;5.60;79.30;99776.34;5047113;28;20031;-81
2022/01/11 10:15:34;;;;;;;;;;;;;;;5.96;79.88;99774.78;5045215;28;19963;-80
2022/01/11 10:18:00;;;;;;;;;;;;;;;6.22;79.77;99779.31;5047759;28;19952;-81
2022/01/11 10:20:26;;;;;;;;;;;;;;;6.15;80.68;99774.91;5046983;28;19966;-80
2022/01/11 10:22:56;;;;;;;;;;;;;;;6.50;79.94;99776.78;5047183;28;20015;-81
2022/01/11 10:25:21;;;;;;;;;;;;;;;6.25;79.20;99774.09;5046758;28;19958;-81
2022/01/11 10:27:55;;;;;;;;;;;;;;;6.00;79.85;99778.34;5047414;28;19912;-81
2022/01/11 10:30:23;;;;;;;;;;;;;;;6.19;78.88;99780.16;5041658;28;19921;-80
2022/01/11 10:32:49;;;;;;;;;;;;;;;6.31;79.08;99783.72;5027522;28;20002;-81
2022/01/11 10:35:18;;;;;;;;;;;;;;;6.48;78.69;99782.03;5026397;28;19996;-80
2022/01/11 10:37:54;;;;;;;;;;;;;;;6.66;78.89;99790.81;5029074;28;19913;-80
2022/01/11 10:40:21;;;;;;;;;;;;;;;6.73;78.75;99790.81;5047546;28;20361;-80
2022/01/11 10:42:47;;;;;;;;;;;;;;;7.01;78.04;99784.75;5045951;28;19912;-80
2022/01/11 10:45:19;;;;;;;;;;;;;;;7.01;76.94;99788.25;5047331;28;20434;-81
2022/01/11 10:47:47;;;;;;;;;;;;;;;6.68;76.08;99789.09;5046361;28;19913;-80
2022/01/11 10:50:12;;;;;;;;;;;;;;;6.87;77.26;99782.13;5047242;28;19908;-80
2022/01/11 10:52:40;;;;;;;;;;;;;;;6.74;77.07;99781.22;5045879;28;19927;-80
2022/01/11 10:55:07;;;;;;;;;;;;;;;6.70;76.12;99789.94;5047283;28;19939;-81
2022/01/11 10:57:33;;;;;;;;;;;;;;;6.81;76.10;99790.84;5046247;28;19955;-80
2022/01/11 11:00:13;;;;;;;;;;;;;;;6.23;76.27;99787.19;5046119;28;19920;-80
2022/01/11 11:02:39;;;;;;;;;;;;;;;6.50;77.58;99785.53;5046659;28;19913;-81
2022/01/11 11:05:11;;;;;;;;;;;;;;;6.30;76.44;99790.69;5045619;28;19913;-81
2022/01/11 11:07:36;;;;;;;;;;;;;;;6.44;77.06;99793.38;5046844;28;20390;-80
2022/01/11 11:10:02;;;;;;;;;;;;;;;6.77;77.36;99799.59;5032457;28;19963;-81
2022/01/11 11:12:27;;;;;;;;;;;;;;;6.39;76.17;99793.34;5026733;28;20013;-80
2022/01/11 11:14:54;;;;;;;;;;;;;;;6.51;76.45;99797.75;5025524;28;19917;-80
2022/01/11 11:17:25;;;;;;;;;;;;;;;6.34;76.13;99786.34;5026846;28;19909;-79
2022/01/11 11:19:55;;;;;;;;;;;;;;;6.04;77.74;99788.84;5027043;28;19909;-80
2022/01/11 11:22:21;;;;;;;;;;;;;;;6.39;77.69;99795.97;5026377;28;19917;-80
2022/01/11 11:24:46;;;;;;;;;;;;;;;6.47;76.28;99798.63;5026128;28;19920;-80
2022/01/11 11:27:11;;;;;;;;;;;;;;;6.53;78.00;99800.38;5024348;28;19920;-80
2022/01/11 11:29:38;;;;;;;;;;;;;;;6.27;76.72;99790.69;5032436;28;19912;-80
2022/01/11 11:32:04;;;;;;;;;;;;;;;6.12;77.50;99796.75;5046520;28;19917;-79
2022/01/11 11:34:30;;;;;;;;;;;;;;;6.01;77.92;99803.66;5045026;28;19908;-80
2022/01/11 11:36:56;;;;;;;;;;;;;;;6.45;77.38;99795.13;5046789;28;19914;-80
2022/01/11 11:39:23;;;;;;;;;;;;;;;6.44;76.91;99791.63;5045338;28;19924;-79
2022/01/11 11:41:49;;;;;;;;;;;;;;;6.44;76.08;99798.59;5045713;28;19916;-81
2022/01/11 11:44:16;;;;;;;;;;;;;;;6.38;76.58;99799.47;5044083;28;20587;-81
2022/01/11 11:46:50;;;;;;;;;;;;;;;6.26;77.25;99802.91;5045366;28;19909;-80
2022/01/11 11:49:17;;;;;;;;;;;;;;;6.52;77.50;99796.91;5045782;28;19920;-79
2022/01/11 11:51:43;;;;;;;;;;;;;;;6.52;76.32;99801.25;5040993;28;20364;-80
2022/01/11 11:54:16;;;;;;;;;;;;;;;6.59;76.64;99803.03;5025534;28;20295;-80
2022/01/11 11:56:46;;;;;;;;;;;;;;;6.54;75.67;99805.63;5025345;28;19920;-82
2022/01/11 11:59:11;;;;;;;;;;;;;;;6.47;76.43;99809.09;5025333;28;20265;-80
2022/01/11 12:01:42;;;;;;;;;;;;;;;6.72;76.84;99811.78;5057173;28;19924;-81
2022/01/11 12:04:19;;;;;;;;;;;;;;;6.37;73.71;99810.81;5025582;28;20367;-81
2022/01/11 12:06:46;;;;;;;;;;;;;;;5.86;75.24;99817.53;5025211;28;19917;-81
2022/01/11 12:09:16;;;;;;;;;;;;;;;5.76;76.37;99823.56;5031877;28;20740;-83
2022/01/11 12:11:43;;;;;;;;;;;;;;;5.47;76.91;99827.72;5045981;28;19919;-81
2022/01/11 12:14:28;;;;;;;;;;;;;;;5.55;77.42;99822.56;5044921;28;19916;-82
2022/01/11 12:16:54;;;;;;;;;;;;;;;5.39;77.83;99829.38;5045733;28;20066;-82
2022/01/11 12:19:39;;;;;;;;;;;;;;;5.10;78.84;99837.00;5045682;28;20003;-82
2022/01/11 12:22:07;;;;;;;;;;;;;;;4.78;80.33;99842.78;5045351;28;20275;-82
2022/01/11 12:24:37;;;;;;;;;;;;;;;4.63;81.44;99836.53;5045425;28;20336;-81
2022/01/11 12:27:02;;;;;;;;;;;;;;;4.79;80.94;99841.91;5045312;28;19975;-81
2022/01/11 12:29:28;;;;;;;;;;;;;;;4.82;80.70;99842.81;5045647;28;19913;-82
2022/01/11 12:31:55;;;;;;;;;;;;;;;5.01;80.13;99845.63;5045340;28;20389;-81
2022/01/11 12:34:39;;;;;;;;;;;;;;;5.10;79.28;99848.31;5045823;28;19922;-81
2022/01/11 12:37:05;;;;;;;;;;;;;;;5.19;79.00;99839.69;5045656;28;20463;-81
2022/01/11 12:39:32;;;;;;;;;;;;;;;5.28;79.43;99849.34;5045617;28;20035;-81
2022/01/11 12:41:58;;;;;;;;;;;;;;;5.40;79.36;99852.06;5045566;28;19912;-82
2022/01/11 12:46:57;;;;;;;;;;;;;;;5.03;79.33;99854.34;5045522;28;19909;-81
2022/01/11 12:49:23;;;;;;;;;;;;;;;4.93;79.76;99856.00;5044254;28;19908;-81
2022/01/11 12:51:58;;;;;;;;;;;;;;;4.89;79.54;99862.03;5045611;28;19986;-81
2022/01/11 12:54:28;;;;;;;;;;;;;;;4.83;80.08;99862.88;5045758;28;19909;-81
2022/01/11 12:56:59;;;;;;;;;;;;;;;4.56;79.99;99865.19;5046769;28;19964;-81
2022/01/11 12:59:26;;;;;;;;;;;;;;;4.32;80.13;99865.72;5049419;28;20391;-81
2022/01/11 13:01:59;;;;;;;;;;;;;;;4.32;80.93;99869.22;5049096;28;20371;-81